createdAt,value
2023-05-01T00:00:19.551Z,8.11
2023-05-01T00:01:19.522Z,8.12
2023-05-01T00:02:19.607Z,8.12
2023-05-01T00:03:19.588Z,8.08
2023-05-01T00:04:19.651Z,8.08
2023-05-01T00:05:19.472Z,8.04
2023-05-01T00:06:19.498Z,8.08
2023-05-01T00:07:19.452Z,8.04
2023-05-01T00:08:19.454Z,8.00
2023-05-01T00:09:19.437Z,7.99
2023-05-01T00:10:19.406Z,7.97
2023-05-01T00:11:19.523Z,7.94
2023-05-01T00:12:19.390Z,7.94
2023-05-01T00:13:19.367Z,7.94
2023-05-01T00:14:19.360Z,7.93
2023-05-01T00:15:19.352Z,7.93
2023-05-01T00:16:19.369Z,7.93
2023-05-01T00:17:19.316Z,7.94
2023-05-01T00:18:19.315Z,7.96
2023-05-01T00:19:19.288Z,7.93
2023-05-01T00:20:19.288Z,7.93
2023-05-01T00:21:19.266Z,7.93
2023-05-01T00:22:19.245Z,7.94
2023-05-01T00:23:19.246Z,7.93
2023-05-01T00:24:19.227Z,7.97
2023-05-01T00:25:19.203Z,7.99
2023-05-01T00:26:19.192Z,8.00
2023-05-01T00:27:19.176Z,7.99
2023-05-01T00:28:19.180Z,8.00
2023-05-01T00:29:19.165Z,7.99
2023-05-01T00:30:19.136Z,7.99
2023-05-01T00:31:19.173Z,7.97
2023-05-01T00:32:19.409Z,7.97
2023-05-01T00:33:19.100Z,7.94
2023-05-01T00:34:19.078Z,7.94
2023-05-01T00:35:19.075Z,7.93
2023-05-01T00:36:19.066Z,7.92
2023-05-01T00:37:19.043Z,7.89
2023-05-01T00:38:19.043Z,7.87
2023-05-01T00:39:19.020Z,7.89
2023-05-01T00:40:19.018Z,7.85
2023-05-01T00:41:19.004Z,7.89
2023-05-01T00:42:18.983Z,7.84
2023-05-01T00:43:18.976Z,7.82
2023-05-01T00:44:18.950Z,7.84
2023-05-01T00:45:18.431Z,7.79
2023-05-01T00:46:18.942Z,7.78
2023-05-01T00:47:18.934Z,7.78
2023-05-01T00:48:18.925Z,7.79
2023-05-01T00:49:18.890Z,7.78
2023-05-01T00:50:18.874Z,7.78
2023-05-01T00:51:18.862Z,7.79
2023-05-01T00:52:18.841Z,7.81
2023-05-01T00:53:18.844Z,7.81
2023-05-01T00:54:18.815Z,7.82
2023-05-01T00:55:18.814Z,7.84
2023-05-01T00:56:18.786Z,7.81
2023-05-01T00:57:18.796Z,7.81
2023-05-01T00:58:18.788Z,7.82
2023-05-01T00:59:18.766Z,7.78
2023-05-01T01:00:18.733Z,7.75
2023-05-01T01:01:18.793Z,7.75
2023-05-01T01:02:18.705Z,7.74
2023-05-01T01:03:18.715Z,7.71
2023-05-01T01:04:18.736Z,7.69
2023-05-01T01:05:18.670Z,7.71
2023-05-01T01:06:18.685Z,7.74
2023-05-01T01:07:18.644Z,7.75
2023-05-01T01:08:18.640Z,7.75
2023-05-01T01:09:18.624Z,7.74
2023-05-01T01:10:18.628Z,7.74
2023-05-01T01:11:18.097Z,7.69
2023-05-01T01:12:18.575Z,7.67
2023-05-01T01:13:18.635Z,7.66
2023-05-01T01:14:18.554Z,7.62
2023-05-01T01:15:18.545Z,7.62
2023-05-01T01:16:18.549Z,7.63
2023-05-01T01:17:18.495Z,7.66
2023-05-01T01:18:18.492Z,7.67
2023-05-01T01:19:18.482Z,7.63
2023-05-01T01:20:18.462Z,7.67
2023-05-01T01:21:18.459Z,7.69
2023-05-01T01:22:18.447Z,7.67
2023-05-01T01:23:18.446Z,7.69
2023-05-01T01:24:18.412Z,7.69
2023-05-01T01:25:18.391Z,7.66
2023-05-01T01:26:18.376Z,7.62
2023-05-01T01:27:18.403Z,7.62
2023-05-01T01:28:18.375Z,7.62
2023-05-01T01:29:18.358Z,7.62
2023-05-01T01:30:18.324Z,7.62
2023-05-01T01:31:18.350Z,7.59
2023-05-01T01:32:18.302Z,7.59
2023-05-01T01:33:18.285Z,7.60
2023-05-01T01:34:18.279Z,7.59
2023-05-01T01:35:18.265Z,7.59
2023-05-01T01:36:18.251Z,7.59
2023-05-01T01:37:18.240Z,7.60
2023-05-01T01:38:18.231Z,7.66
2023-05-01T01:39:18.202Z,7.63
2023-05-01T01:40:18.186Z,7.67
2023-05-01T01:41:18.171Z,7.66
2023-05-01T01:42:18.163Z,7.63
2023-05-01T01:43:18.183Z,7.62
2023-05-01T01:44:18.136Z,7.63
2023-05-01T01:45:18.124Z,7.62
2023-05-01T01:46:16.832Z,7.63
2023-05-01T01:47:18.105Z,7.62
2023-05-01T01:48:16.822Z,7.60
2023-05-01T01:49:18.502Z,7.58
2023-05-01T01:50:16.825Z,7.59
2023-05-01T01:51:18.060Z,7.62
2023-05-01T01:52:16.817Z,7.60
2023-05-01T01:53:18.028Z,7.63
2023-05-01T01:54:18.026Z,7.66
2023-05-01T01:55:18.001Z,7.63
2023-05-01T01:56:17.978Z,7.62
2023-05-01T01:57:17.967Z,7.62
2023-05-01T01:58:17.968Z,7.60
2023-05-01T01:59:17.947Z,7.59
2023-05-01T02:00:17.928Z,7.60
2023-05-01T02:01:17.940Z,7.62
2023-05-01T02:02:16.720Z,7.60
2023-05-01T02:03:17.935Z,7.62
2023-05-01T02:04:17.913Z,7.59
2023-05-01T02:05:16.834Z,7.63
2023-05-01T02:06:17.919Z,7.62
2023-05-01T02:07:17.827Z,7.63
2023-05-01T02:08:17.305Z,7.66
2023-05-01T02:09:17.819Z,7.66
2023-05-01T02:10:16.850Z,7.69
2023-05-01T02:11:16.836Z,7.69
2023-05-01T02:12:17.773Z,7.72
2023-05-01T02:13:17.764Z,7.74
2023-05-01T02:14:17.772Z,7.74
2023-05-01T02:15:17.723Z,7.74
2023-05-01T02:16:17.738Z,7.75
2023-05-01T02:17:17.764Z,7.77
2023-05-01T02:18:17.670Z,7.78
2023-05-01T02:19:17.669Z,7.81
2023-05-01T02:20:17.638Z,7.81
2023-05-01T02:21:17.647Z,7.82
2023-05-01T02:22:17.625Z,7.84
2023-05-01T02:23:17.120Z,7.85
2023-05-01T02:24:17.623Z,7.85
2023-05-01T02:25:17.582Z,7.85
2023-05-01T02:26:17.597Z,7.92
2023-05-01T02:27:17.563Z,7.90
2023-05-01T02:28:17.540Z,7.93
2023-05-01T02:29:17.527Z,7.94
2023-05-01T02:30:17.509Z,7.93
2023-05-01T02:31:16.700Z,7.96
2023-05-01T02:32:17.487Z,8.00
2023-05-01T02:33:17.492Z,8.03
2023-05-01T02:34:17.469Z,8.07
2023-05-01T02:35:17.456Z,8.11
2023-05-01T02:36:17.430Z,8.12
2023-05-01T02:37:17.425Z,8.14
2023-05-01T02:38:17.406Z,8.18
2023-05-01T02:39:17.416Z,8.18
2023-05-01T02:40:17.386Z,8.21
2023-05-01T02:41:17.368Z,8.20
2023-05-01T02:42:17.346Z,8.21
2023-05-01T02:43:17.334Z,8.21
2023-05-01T02:44:15.893Z,8.26
2023-05-01T02:45:15.907Z,8.30
2023-05-01T02:46:17.332Z,8.33
2023-05-01T02:47:17.305Z,8.36
2023-05-01T02:48:17.325Z,8.39
2023-05-01T02:49:17.273Z,8.37
2023-05-01T02:50:17.257Z,8.39
2023-05-01T02:51:17.233Z,8.42
2023-05-01T02:52:17.212Z,8.42
2023-05-01T02:53:17.210Z,8.44
2023-05-01T02:54:17.205Z,8.47
2023-05-01T02:55:17.187Z,8.48
2023-05-01T02:56:16.202Z,8.53
2023-05-01T02:57:16.646Z,8.55
2023-05-01T02:58:16.196Z,8.58
2023-05-01T02:59:16.185Z,8.57
2023-05-01T03:00:16.228Z,8.63
2023-05-01T03:01:15.720Z,8.65
2023-05-01T03:02:16.183Z,8.72
2023-05-01T03:03:17.115Z,8.76
2023-05-01T03:04:16.103Z,8.78
2023-05-01T03:05:17.036Z,8.83
2023-05-01T03:06:17.054Z,8.87
2023-05-01T03:07:17.016Z,8.86
2023-05-01T03:08:15.589Z,8.90
2023-05-01T03:09:16.212Z,8.91
2023-05-01T03:10:16.201Z,8.91
2023-05-01T03:11:16.958Z,8.90
2023-05-01T03:12:16.138Z,8.93
2023-05-01T03:13:16.936Z,8.94
2023-05-01T03:14:16.210Z,8.94
2023-05-01T03:15:16.931Z,8.99
2023-05-01T03:16:16.923Z,8.97
2023-05-01T03:17:15.432Z,9.01
2023-05-01T03:18:16.870Z,9.09
2023-05-01T03:19:16.868Z,9.12
2023-05-01T03:20:16.843Z,9.15
2023-05-01T03:21:16.825Z,9.13
2023-05-01T03:22:15.594Z,9.16
2023-05-01T03:23:16.795Z,9.18
2023-05-01T03:24:16.795Z,9.25
2023-05-01T03:25:15.761Z,9.28
2023-05-01T03:26:16.758Z,9.32
2023-05-01T03:27:15.810Z,9.39
2023-05-01T03:28:16.717Z,9.45
2023-05-01T03:29:16.722Z,9.56
2023-05-01T03:30:16.749Z,9.63
2023-05-01T03:31:16.685Z,9.67
2023-05-01T03:32:16.888Z,9.70
2023-05-01T03:33:15.303Z,9.75
2023-05-01T03:34:16.650Z,9.78
2023-05-01T03:35:16.733Z,9.79
2023-05-01T03:36:16.607Z,9.81
2023-05-01T03:37:16.607Z,9.83
2023-05-01T03:38:16.580Z,9.85
2023-05-01T03:39:16.596Z,9.85
2023-05-01T03:40:16.556Z,9.79
2023-05-01T03:41:16.054Z,9.79
2023-05-01T03:42:16.539Z,9.81
2023-05-01T03:43:16.530Z,9.82
2023-05-01T03:44:16.514Z,9.78
2023-05-01T03:45:16.524Z,9.82
2023-05-01T03:46:16.503Z,9.83
2023-05-01T03:47:16.450Z,9.82
2023-05-01T03:48:16.445Z,9.83
2023-05-01T03:49:16.430Z,9.83
2023-05-01T03:50:15.252Z,9.83
2023-05-01T03:51:16.405Z,9.86
2023-05-01T03:52:16.387Z,9.83
2023-05-01T03:53:16.377Z,9.85
2023-05-01T03:54:16.380Z,9.83
2023-05-01T03:55:16.362Z,9.94
2023-05-01T03:56:16.340Z,10.03
2023-05-01T03:57:16.340Z,10.09
2023-05-01T03:58:16.316Z,10.14
2023-05-01T03:59:16.309Z,10.18
2023-05-01T04:00:16.291Z,10.21
2023-05-01T04:01:16.281Z,10.21
2023-05-01T04:02:14.847Z,10.25
2023-05-01T04:03:16.294Z,10.30
2023-05-01T04:04:16.288Z,10.36
2023-05-01T04:05:16.228Z,10.36
2023-05-01T04:06:16.253Z,10.34
2023-05-01T04:07:16.214Z,10.39
2023-05-01T04:08:14.931Z,10.39
2023-05-01T04:09:16.174Z,10.43
2023-05-01T04:10:16.159Z,10.44
2023-05-01T04:11:16.138Z,10.44
2023-05-01T04:12:14.936Z,10.44
2023-05-01T04:13:14.936Z,10.46
2023-05-01T04:14:16.115Z,10.52
2023-05-01T04:15:16.105Z,10.53
2023-05-01T04:16:14.971Z,10.55
2023-05-01T04:17:16.054Z,10.60
2023-05-01T04:18:14.971Z,10.65
2023-05-01T04:19:16.033Z,10.63
2023-05-01T04:20:14.961Z,10.62
2023-05-01T04:21:14.959Z,10.63
2023-05-01T04:22:14.960Z,10.60
2023-05-01T04:23:16.044Z,10.62
2023-05-01T04:24:14.893Z,10.63
2023-05-01T04:25:15.963Z,10.65
2023-05-01T04:26:14.957Z,10.66
2023-05-01T04:27:15.975Z,10.68
2023-05-01T04:28:14.970Z,10.68
2023-05-01T04:29:14.658Z,10.65
2023-05-01T04:30:14.959Z,10.68
2023-05-01T04:31:15.945Z,10.70
2023-05-01T04:32:15.365Z,10.70
2023-05-01T04:33:15.854Z,10.66
2023-05-01T04:34:15.851Z,10.65
2023-05-01T04:35:15.851Z,10.62
2023-05-01T04:36:15.809Z,10.63
2023-05-01T04:37:15.801Z,10.65
2023-05-01T04:38:15.776Z,10.68
2023-05-01T04:39:15.771Z,10.66
2023-05-01T04:40:15.756Z,10.68
2023-05-01T04:41:15.735Z,10.71
2023-05-01T04:42:15.725Z,10.74
2023-05-01T04:43:15.704Z,10.78
2023-05-01T04:44:15.700Z,10.74
2023-05-01T04:45:15.692Z,10.77
2023-05-01T04:46:15.713Z,10.77
2023-05-01T04:47:15.660Z,10.78
2023-05-01T04:48:15.662Z,10.80
2023-05-01T04:49:15.650Z,10.77
2023-05-01T04:50:15.620Z,10.80
2023-05-01T04:51:15.608Z,10.80
2023-05-01T04:52:15.584Z,10.78
2023-05-01T04:53:15.568Z,10.76
2023-05-01T04:54:15.563Z,10.74
2023-05-01T04:55:15.560Z,10.81
2023-05-01T04:56:15.527Z,10.73
2023-05-01T04:57:15.508Z,10.74
2023-05-01T04:58:15.505Z,10.74
2023-05-01T04:59:15.519Z,10.73
2023-05-01T05:00:15.481Z,10.71
2023-05-01T05:01:15.499Z,10.74
2023-05-01T05:02:15.462Z,10.66
2023-05-01T05:03:15.595Z,10.73
2023-05-01T05:04:15.426Z,10.80
2023-05-01T05:05:15.414Z,10.77
2023-05-01T05:06:15.436Z,10.83
2023-05-01T05:07:15.378Z,10.91
2023-05-01T05:08:15.359Z,11.02
2023-05-01T05:09:16.485Z,11.06
2023-05-01T05:10:15.345Z,11.03
2023-05-01T05:11:15.352Z,11.06
2023-05-01T05:12:15.315Z,11.07
2023-05-01T05:13:15.308Z,11.07
2023-05-01T05:14:14.775Z,11.09
2023-05-01T05:15:15.283Z,11.06
2023-05-01T05:16:15.382Z,11.02
2023-05-01T05:17:14.299Z,11.07
2023-05-01T05:18:15.283Z,11.09
2023-05-01T05:19:15.228Z,11.20
2023-05-01T05:20:15.216Z,11.31
2023-05-01T05:21:15.214Z,11.29
2023-05-01T05:22:15.170Z,11.39
2023-05-01T05:23:15.161Z,11.49
2023-05-01T05:24:15.154Z,11.52
2023-05-01T05:25:15.143Z,11.54
2023-05-01T05:26:15.121Z,11.57
2023-05-01T05:27:15.106Z,11.61
2023-05-01T05:28:15.098Z,11.65
2023-05-01T05:29:14.432Z,11.71
2023-05-01T05:30:14.149Z,11.65
2023-05-01T05:31:15.057Z,11.71
2023-05-01T05:32:15.098Z,11.77
2023-05-01T05:33:15.115Z,11.90
2023-05-01T05:34:15.026Z,12.06
2023-05-01T05:35:15.029Z,12.12
2023-05-01T05:36:14.985Z,12.19
2023-05-01T05:37:14.965Z,12.24
2023-05-01T05:38:14.975Z,12.29
2023-05-01T05:39:14.959Z,12.21
2023-05-01T05:40:14.962Z,12.16
2023-05-01T05:41:14.922Z,12.33
2023-05-01T05:42:14.900Z,12.37
2023-05-01T05:43:14.915Z,12.39
2023-05-01T05:44:14.891Z,12.51
2023-05-01T05:45:14.865Z,12.63
2023-05-01T05:46:14.926Z,12.66
2023-05-01T05:47:14.892Z,12.78
2023-05-01T05:48:14.907Z,12.93
2023-05-01T05:49:14.808Z,13.06
2023-05-01T05:50:14.842Z,13.06
2023-05-01T05:51:14.789Z,13.04
2023-05-01T05:52:14.776Z,12.97
2023-05-01T05:53:14.752Z,13.14
2023-05-01T05:54:14.750Z,13.25
2023-05-01T05:55:14.728Z,13.29
2023-05-01T05:56:13.293Z,13.37
2023-05-01T05:57:14.699Z,13.41
2023-05-01T05:58:14.688Z,13.44
2023-05-01T05:59:16.606Z,13.43
2023-05-01T06:00:14.672Z,13.43
2023-05-01T06:01:14.666Z,13.52
2023-05-01T06:02:14.678Z,13.62
2023-05-01T06:03:14.689Z,13.49
2023-05-01T06:04:14.609Z,13.40
2023-05-01T06:05:14.668Z,13.21
2023-05-01T06:06:14.627Z,13.20
2023-05-01T06:07:14.572Z,13.20
2023-05-01T06:08:14.627Z,13.18
2023-05-01T06:09:14.536Z,13.11
2023-05-01T06:10:14.536Z,13.09
2023-05-01T06:11:14.513Z,13.07
2023-05-01T06:12:14.500Z,13.15
2023-05-01T06:13:14.947Z,13.15
2023-05-01T06:14:14.485Z,13.11
2023-05-01T06:15:14.510Z,13.02
2023-05-01T06:16:14.472Z,13.03
2023-05-01T06:17:14.431Z,13.04
2023-05-01T06:18:14.460Z,13.04
2023-05-01T06:19:14.396Z,13.07
2023-05-01T06:20:14.402Z,13.02
2023-05-01T06:21:14.378Z,12.96
2023-05-01T06:22:14.364Z,12.96
2023-05-01T06:23:14.346Z,13.07
2023-05-01T06:24:14.336Z,13.12
2023-05-01T06:25:13.063Z,13.14
2023-05-01T06:26:14.340Z,13.17
2023-05-01T06:27:14.297Z,13.15
2023-05-01T06:28:14.293Z,13.14
2023-05-01T06:29:13.053Z,13.07
2023-05-01T06:30:14.250Z,13.15
2023-05-01T06:31:13.111Z,13.15
2023-05-01T06:32:14.229Z,13.15
2023-05-01T06:33:13.154Z,13.14
2023-05-01T06:34:14.203Z,13.20
2023-05-01T06:35:13.065Z,13.21
2023-05-01T06:36:13.052Z,13.15
2023-05-01T06:37:14.156Z,13.22
2023-05-01T06:38:14.134Z,13.22
2023-05-01T06:39:14.117Z,13.14
2023-05-01T06:40:14.153Z,13.09
2023-05-01T06:41:14.108Z,13.24
2023-05-01T06:42:14.074Z,13.29
2023-05-01T06:43:14.061Z,13.40
2023-05-01T06:44:14.055Z,13.47
2023-05-01T06:45:14.038Z,13.46
2023-05-01T06:46:14.089Z,13.40
2023-05-01T06:47:14.161Z,13.47
2023-05-01T06:48:14.074Z,13.62
2023-05-01T06:49:13.018Z,13.65
2023-05-01T06:50:13.031Z,13.58
2023-05-01T06:51:13.037Z,13.44
2023-05-01T06:52:13.138Z,13.46
2023-05-01T06:53:13.951Z,13.55
2023-05-01T06:54:13.939Z,13.63
2023-05-01T06:55:13.897Z,13.71
2023-05-01T06:56:13.898Z,13.79
2023-05-01T06:57:13.869Z,13.89
2023-05-01T06:58:23.399Z,14.04
2023-05-01T06:59:14.846Z,14.20
2023-05-01T07:00:13.837Z,14.44
2023-05-01T07:01:13.843Z,14.49
2023-05-01T07:02:13.854Z,14.67
2023-05-01T07:03:13.856Z,14.72
2023-05-01T07:04:13.774Z,14.87
2023-05-01T07:05:13.775Z,15.39
2023-05-01T07:06:13.835Z,15.68
2023-05-01T07:07:13.745Z,15.56
2023-05-01T07:08:13.747Z,15.63
2023-05-01T07:09:13.705Z,15.61
2023-05-01T07:10:13.718Z,15.72
2023-05-01T07:11:13.709Z,15.79
2023-05-01T07:12:13.681Z,15.82
2023-05-01T07:13:13.653Z,15.61
2023-05-01T07:14:13.661Z,15.42
2023-05-01T07:15:12.226Z,15.28
2023-05-01T07:16:13.684Z,15.30
2023-05-01T07:17:13.608Z,15.31
2023-05-01T07:18:13.616Z,15.36
2023-05-01T07:19:13.591Z,15.42
2023-05-01T07:20:13.565Z,15.52
2023-05-01T07:21:13.550Z,15.56
2023-05-01T07:22:13.539Z,15.63
2023-05-01T07:23:13.539Z,15.57
2023-05-01T07:24:12.239Z,15.59
2023-05-01T07:25:13.498Z,16.26
2023-05-01T07:26:13.497Z,16.73
2023-05-01T07:27:13.463Z,16.75
2023-05-01T07:28:13.459Z,16.70
2023-05-01T07:29:12.471Z,17.00
2023-05-01T07:30:12.507Z,17.64
2023-05-01T07:31:12.515Z,18.00
2023-05-01T07:32:12.609Z,17.94
2023-05-01T07:33:13.474Z,18.27
2023-05-01T07:34:13.390Z,18.39
2023-05-01T07:35:12.006Z,18.59
2023-05-01T07:36:12.409Z,18.91
2023-05-01T07:37:12.526Z,19.54
2023-05-01T07:38:13.329Z,20.03
2023-05-01T07:39:12.461Z,20.10
2023-05-01T07:40:11.930Z,19.84
2023-05-01T07:41:12.046Z,19.18
2023-05-01T07:42:13.263Z,19.15
2023-05-01T07:43:11.887Z,18.98
2023-05-01T07:44:13.233Z,19.48
2023-05-01T07:45:13.209Z,19.18
2023-05-01T07:46:13.222Z,19.51
2023-05-01T07:47:12.458Z,18.94
2023-05-01T07:48:12.508Z,18.83
2023-05-01T07:49:12.477Z,18.54
2023-05-01T07:50:13.170Z,18.49
2023-05-01T07:51:13.170Z,18.15
2023-05-01T07:52:13.194Z,18.50
2023-05-01T07:53:12.417Z,19.35
2023-05-01T07:54:13.103Z,19.54
2023-05-01T07:55:11.748Z,19.33
2023-05-01T07:56:12.345Z,19.08
2023-05-01T07:57:13.057Z,18.84
2023-05-01T07:58:13.045Z,19.73
2023-05-01T07:59:11.581Z,20.74
2023-05-01T08:00:13.025Z,21.21
2023-05-01T08:01:13.006Z,20.89
2023-05-01T08:02:13.042Z,20.23
2023-05-01T08:03:13.261Z,19.68
2023-05-01T08:04:13.121Z,19.17
2023-05-01T08:05:12.943Z,18.72
2023-05-01T08:06:12.954Z,18.44
2023-05-01T08:07:12.923Z,18.02
2023-05-01T08:08:12.902Z,17.76
2023-05-01T08:09:12.884Z,17.62
2023-05-01T08:10:12.886Z,17.48
2023-05-01T08:11:12.880Z,17.47
2023-05-01T08:12:12.840Z,17.30
2023-05-01T08:13:12.851Z,17.35
2023-05-01T08:14:12.823Z,17.35
2023-05-01T08:15:12.812Z,17.20
2023-05-01T08:16:12.845Z,16.96
2023-05-01T08:17:12.799Z,16.85
2023-05-01T08:18:12.842Z,16.89
2023-05-01T08:19:12.754Z,16.90
2023-05-01T08:20:11.504Z,16.85
2023-05-01T08:21:12.756Z,16.93
2023-05-01T08:22:12.727Z,17.06
2023-05-01T08:23:12.695Z,17.14
2023-05-01T08:24:12.698Z,17.29
2023-05-01T08:25:12.680Z,17.32
2023-05-01T08:26:12.674Z,17.28
2023-05-01T08:27:12.651Z,17.22
2023-05-01T08:28:12.644Z,17.08
2023-05-01T08:29:12.615Z,16.95
2023-05-01T08:30:12.623Z,16.88
2023-05-01T08:31:12.663Z,16.80
2023-05-01T08:32:12.579Z,16.86
2023-05-01T08:33:12.625Z,16.88
2023-05-01T08:34:12.555Z,16.90
2023-05-01T08:35:12.556Z,16.88
2023-05-01T08:36:12.607Z,17.03
2023-05-01T08:37:12.523Z,17.08
2023-05-01T08:38:12.522Z,17.22
2023-05-01T08:39:11.040Z,17.22
2023-05-01T08:40:12.476Z,17.15
2023-05-01T08:41:12.454Z,17.18
2023-05-01T08:42:12.461Z,17.17
2023-05-01T08:43:12.445Z,17.18
2023-05-01T08:44:12.414Z,17.35
2023-05-01T08:45:11.291Z,17.71
2023-05-01T08:46:12.417Z,18.02
2023-05-01T08:47:11.211Z,18.39
2023-05-01T08:48:12.461Z,19.43
2023-05-01T08:49:12.351Z,20.08
2023-05-01T08:50:12.327Z,19.84
2023-05-01T08:51:12.318Z,20.20
2023-05-01T08:52:10.873Z,20.93
2023-05-01T08:53:12.295Z,21.24
2023-05-01T08:54:12.289Z,22.04
2023-05-01T08:55:10.997Z,22.86
2023-05-01T08:56:12.263Z,23.47
2023-05-01T08:57:12.231Z,22.92
2023-05-01T08:58:12.213Z,22.67
2023-05-01T08:59:10.918Z,22.74
2023-05-01T09:00:11.066Z,22.83
2023-05-01T09:01:12.231Z,22.53
2023-05-01T09:02:12.396Z,22.59
2023-05-01T09:03:12.265Z,22.17
2023-05-01T09:04:11.224Z,21.85
2023-05-01T09:05:11.185Z,21.16
2023-05-01T09:06:11.201Z,20.56
2023-05-01T09:07:12.102Z,19.86
2023-05-01T09:08:12.095Z,19.46
2023-05-01T09:09:12.075Z,19.55
2023-05-01T09:10:10.850Z,19.11
2023-05-01T09:11:12.051Z,19.36
2023-05-01T09:12:12.036Z,19.80
2023-05-01T09:13:12.024Z,20.66
2023-05-01T09:14:12.041Z,21.30
2023-05-01T09:15:11.986Z,21.38
2023-05-01T09:16:12.009Z,21.50
2023-05-01T09:17:11.967Z,21.20
2023-05-01T09:18:11.974Z,21.36
2023-05-01T09:19:11.937Z,21.14
2023-05-01T09:20:11.934Z,21.04
2023-05-01T09:21:11.904Z,20.95
2023-05-01T09:22:11.920Z,21.23
2023-05-01T09:23:11.874Z,21.04
2023-05-01T09:24:11.873Z,20.90
2023-05-01T09:25:11.870Z,20.59
2023-05-01T09:26:11.842Z,20.69
2023-05-01T09:27:11.832Z,20.51
2023-05-01T09:28:11.811Z,19.63
2023-05-01T09:29:11.800Z,19.39
2023-05-01T09:30:11.779Z,19.29
2023-05-01T09:31:11.765Z,18.90
2023-05-01T09:32:11.865Z,19.40
2023-05-01T09:33:11.808Z,19.57
2023-05-01T09:34:11.728Z,20.12
2023-05-01T09:35:11.727Z,20.56
2023-05-01T09:36:11.713Z,20.47
2023-05-01T09:37:11.697Z,20.24
2023-05-01T09:38:11.678Z,20.33
2023-05-01T09:39:11.666Z,20.41
2023-05-01T09:40:11.649Z,20.89
2023-05-01T09:41:11.638Z,21.34
2023-05-01T09:42:11.682Z,21.85
2023-05-01T09:43:11.962Z,21.95
2023-05-01T09:44:11.627Z,20.13
2023-05-01T09:45:11.593Z,19.50
2023-05-01T09:46:11.637Z,18.82
2023-05-01T09:47:11.567Z,18.98
2023-05-01T09:48:11.831Z,19.54
2023-05-01T09:49:11.531Z,19.95
2023-05-01T09:50:11.524Z,20.65
2023-05-01T09:51:10.533Z,21.21
2023-05-01T09:52:10.548Z,21.78
2023-05-01T09:53:11.495Z,22.41
2023-05-01T09:54:11.452Z,22.28
2023-05-01T09:55:11.440Z,22.52
2023-05-01T09:56:10.467Z,22.60
2023-05-01T09:57:10.938Z,22.43
2023-05-01T09:58:11.397Z,22.29
2023-05-01T09:59:10.554Z,22.31
2023-05-01T10:00:11.377Z,22.12
2023-05-01T10:01:11.396Z,22.25
2023-05-01T10:02:11.412Z,22.23
2023-05-01T10:03:11.412Z,22.02
2023-05-01T10:04:10.206Z,21.95
2023-05-01T10:05:11.309Z,22.02
2023-05-01T10:06:11.380Z,22.17
2023-05-01T10:07:11.310Z,21.98
2023-05-01T10:08:11.291Z,21.67
2023-05-01T10:09:11.258Z,21.56
2023-05-01T10:10:11.266Z,21.53
2023-05-01T10:11:11.233Z,21.51
2023-05-01T10:12:10.008Z,21.61
2023-05-01T10:13:11.203Z,21.90
2023-05-01T10:14:11.213Z,22.34
2023-05-01T10:15:24.076Z,23.15
2023-05-01T10:16:12.209Z,23.70
2023-05-01T10:17:11.264Z,23.87
2023-05-01T10:18:11.174Z,23.47
2023-05-01T10:19:10.438Z,23.11
2023-05-01T10:20:10.417Z,22.94
2023-05-01T10:21:11.104Z,22.92
2023-05-01T10:22:11.201Z,23.09
2023-05-01T10:23:11.078Z,23.01
2023-05-01T10:24:11.121Z,22.96
2023-05-01T10:25:11.002Z,22.59
2023-05-01T10:26:11.034Z,22.31
2023-05-01T10:27:11.028Z,22.19
2023-05-01T10:28:11.010Z,21.92
2023-05-01T10:29:10.996Z,21.78
2023-05-01T10:30:11.004Z,21.72
2023-05-01T10:31:11.043Z,21.50
2023-05-01T10:32:10.963Z,21.44
2023-05-01T10:33:10.988Z,21.44
2023-05-01T10:34:10.934Z,21.48
2023-05-01T10:35:10.909Z,21.17
2023-05-01T10:36:10.985Z,20.81
2023-05-01T10:37:10.893Z,20.99
2023-05-01T10:38:10.884Z,21.29
2023-05-01T10:39:10.857Z,21.42
2023-05-01T10:40:10.856Z,21.45
2023-05-01T10:41:10.834Z,21.48
2023-05-01T10:42:10.866Z,21.48
2023-05-01T10:43:10.802Z,21.60
2023-05-01T10:44:10.786Z,21.64
2023-05-01T10:45:10.785Z,21.67
2023-05-01T10:46:10.790Z,20.62
2023-05-01T10:47:10.751Z,20.38
2023-05-01T10:48:10.818Z,20.68
2023-05-01T10:49:10.721Z,20.81
2023-05-01T10:50:10.766Z,21.01
2023-05-01T10:51:10.692Z,21.02
2023-05-01T10:52:09.316Z,21.11
2023-05-01T10:53:10.660Z,21.11
2023-05-01T10:54:10.652Z,20.74
2023-05-01T10:55:10.627Z,20.95
2023-05-01T10:56:10.612Z,20.96
2023-05-01T10:57:10.620Z,20.99
2023-05-01T10:58:10.598Z,21.01
2023-05-01T10:59:09.375Z,21.14
2023-05-01T11:00:10.578Z,20.96
2023-05-01T11:01:10.574Z,20.79
2023-05-01T11:02:10.576Z,20.83
2023-05-01T11:03:10.551Z,20.87
2023-05-01T11:04:10.021Z,20.71
2023-05-01T11:05:10.575Z,20.80
2023-05-01T11:06:10.551Z,20.93
2023-05-01T11:07:10.529Z,21.05
2023-05-01T11:08:09.242Z,20.64
2023-05-01T11:09:10.441Z,20.64
2023-05-01T11:10:10.428Z,20.83
2023-05-01T11:11:10.429Z,21.08
2023-05-01T11:12:10.427Z,21.11
2023-05-01T11:13:10.450Z,20.99
2023-05-01T11:14:10.411Z,20.99
2023-05-01T11:15:10.407Z,20.96
2023-05-01T11:16:09.884Z,21.02
2023-05-01T11:17:10.366Z,21.20
2023-05-01T11:18:09.438Z,21.41
2023-05-01T11:19:08.945Z,21.38
2023-05-01T11:20:10.520Z,21.30
2023-05-01T11:21:10.337Z,21.36
2023-05-01T11:22:10.419Z,21.29
2023-05-01T11:23:09.325Z,21.21
2023-05-01T11:24:09.346Z,21.21
2023-05-01T11:25:10.237Z,21.42
2023-05-01T11:26:10.235Z,21.56
2023-05-01T11:27:10.237Z,21.39
2023-05-01T11:28:10.177Z,21.91
2023-05-01T11:29:10.199Z,22.93
2023-05-01T11:30:10.166Z,23.42
2023-05-01T11:31:08.683Z,23.68
2023-05-01T11:32:10.187Z,24.04
2023-05-01T11:33:11.101Z,24.16
2023-05-01T11:34:10.108Z,23.86
2023-05-01T11:35:10.096Z,24.37
2023-05-01T11:36:10.075Z,24.88
2023-05-01T11:37:10.075Z,25.39
2023-05-01T11:38:10.044Z,26.04
2023-05-01T11:39:10.031Z,26.20
2023-05-01T11:40:10.033Z,26.24
2023-05-01T11:41:10.019Z,25.79
2023-05-01T11:42:10.088Z,24.56
2023-05-01T11:43:09.977Z,23.85
2023-05-01T11:44:09.963Z,22.50
2023-05-01T11:45:09.963Z,21.90
2023-05-01T11:46:09.963Z,21.66
2023-05-01T11:47:09.932Z,22.04
2023-05-01T11:48:09.970Z,22.10
2023-05-01T11:49:09.929Z,22.71
2023-05-01T11:50:09.901Z,22.41
2023-05-01T11:51:09.879Z,23.60
2023-05-01T11:52:09.876Z,24.19
2023-05-01T11:53:09.867Z,23.49
2023-05-01T11:54:09.846Z,23.77
2023-05-01T11:55:09.825Z,23.52
2023-05-01T11:56:19.554Z,24.38
2023-05-01T11:57:10.809Z,24.88
2023-05-01T11:58:09.776Z,24.59
2023-05-01T11:59:09.769Z,24.71
2023-05-01T12:00:09.298Z,25.67
2023-05-01T12:01:09.756Z,26.61
2023-05-01T12:02:09.779Z,26.42
2023-05-01T12:03:09.836Z,26.77
2023-05-01T12:04:09.807Z,26.22
2023-05-01T12:05:09.754Z,26.31
2023-05-01T12:06:08.731Z,25.56
2023-05-01T12:07:08.724Z,24.76
2023-05-01T12:08:08.732Z,24.38
2023-05-01T12:09:09.643Z,24.22
2023-05-01T12:10:08.455Z,24.44
2023-05-01T12:11:08.754Z,24.87
2023-05-01T12:12:09.604Z,25.80
2023-05-01T12:13:09.601Z,25.86
2023-05-01T12:14:08.765Z,25.82
2023-05-01T12:15:09.577Z,26.01
2023-05-01T12:16:08.683Z,25.74
2023-05-01T12:17:09.664Z,25.25
2023-05-01T12:18:08.780Z,25.00
2023-05-01T12:19:08.682Z,25.98
2023-05-01T12:20:08.418Z,26.44
2023-05-01T12:21:09.486Z,26.81
2023-05-01T12:22:09.476Z,27.14
2023-05-01T12:23:09.465Z,27.06
2023-05-01T12:24:08.724Z,27.13
2023-05-01T12:25:09.445Z,27.09
2023-05-01T12:26:08.637Z,26.98
2023-05-01T12:27:08.744Z,26.86
2023-05-01T12:28:09.415Z,27.36
2023-05-01T12:29:09.395Z,27.84
2023-05-01T12:30:08.553Z,27.73
2023-05-01T12:31:09.434Z,27.05
2023-05-01T12:32:09.449Z,26.29
2023-05-01T12:33:09.383Z,26.79
2023-05-01T12:34:08.693Z,27.14
2023-05-01T12:35:09.317Z,27.67
2023-05-01T12:36:09.302Z,27.53
2023-05-01T12:37:09.297Z,25.39
2023-05-01T12:38:09.282Z,25.15
2023-05-01T12:39:09.329Z,25.28
2023-05-01T12:40:09.243Z,24.69
2023-05-01T12:41:09.237Z,25.19
2023-05-01T12:42:09.232Z,25.79
2023-05-01T12:43:12.681Z,26.76
2023-05-01T12:44:09.193Z,27.23
2023-05-01T12:45:09.190Z,27.47
2023-05-01T12:46:08.067Z,26.89
2023-05-01T12:47:09.162Z,27.50
2023-05-01T12:48:09.191Z,28.22
2023-05-01T12:49:09.132Z,28.26
2023-05-01T12:50:09.121Z,28.26
2023-05-01T12:51:09.114Z,27.57
2023-05-01T12:52:09.402Z,26.50
2023-05-01T12:53:09.112Z,25.42
2023-05-01T12:54:09.079Z,24.27
2023-05-01T12:55:09.078Z,23.31
2023-05-01T12:56:09.052Z,22.77
2023-05-01T12:57:09.064Z,22.52
2023-05-01T12:58:09.034Z,22.13
2023-05-01T12:59:09.010Z,21.67
2023-05-01T13:00:09.008Z,21.60